sensor_id;sensor_type;location;lat;lon;timestamp;P1;durP1;ratioP1;P2;durP2;ratioP2
20022;SDS011;10172;42.054;24.546;2024-02-21T00:01:05;33.42;;;20.88;;
20022;SDS011;10172;42.054;24.546;2024-02-21T00:03:30;33.28;;;20.10;;
20022;SDS011;10172;42.054;24.546;2024-02-21T00:05:56;30.00;;;19.45;;
20022;SDS011;10172;42.054;24.546;2024-02-21T00:08:21;30.05;;;19.45;;
20022;SDS011;10172;42.054;24.546;2024-02-21T00:10:46;30.65;;;20.20;;
20022;SDS011;10172;42.054;24.546;2024-02-21T00:13:12;31.20;;;19.60;;
20022;SDS011;10172;42.054;24.546;2024-02-21T00:15:37;31.10;;;20.45;;
20022;SDS011;10172;42.054;24.546;2024-02-21T00:18:03;35.22;;;21.25;;
20022;SDS011;10172;42.054;24.546;2024-02-21T00:20:28;29.05;;;19.60;;
20022;SDS011;10172;42.054;24.546;2024-02-21T00:22:54;31.13;;;19.83;;
20022;SDS011;10172;42.054;24.546;2024-02-21T00:25:19;29.17;;;18.80;;
20022;SDS011;10172;42.054;24.546;2024-02-21T00:27:45;30.25;;;18.65;;
20022;SDS011;10172;42.054;24.546;2024-02-21T00:30:10;29.00;;;19.15;;
20022;SDS011;10172;42.054;24.546;2024-02-21T00:32:36;30.35;;;18.77;;
20022;SDS011;10172;42.054;24.546;2024-02-21T00:35:01;31.63;;;19.75;;
20022;SDS011;10172;42.054;24.546;2024-02-21T00:37:27;29.38;;;18.67;;
20022;SDS011;10172;42.054;24.546;2024-02-21T00:39:55;31.02;;;20.15;;
20022;SDS011;10172;42.054;24.546;2024-02-21T00:42:21;29.75;;;17.60;;
20022;SDS011;10172;42.054;24.546;2024-02-21T00:44:46;32.80;;;18.45;;
20022;SDS011;10172;42.054;24.546;2024-02-21T00:47:12;29.50;;;18.35;;
20022;SDS011;10172;42.054;24.546;2024-02-21T00:49:37;27.42;;;18.58;;
20022;SDS011;10172;42.054;24.546;2024-02-21T00:52:02;31.52;;;19.25;;
20022;SDS011;10172;42.054;24.546;2024-02-21T00:54:28;25.90;;;16.27;;
20022;SDS011;10172;42.054;24.546;2024-02-21T00:56:53;23.33;;;15.02;;
20022;SDS011;10172;42.054;24.546;2024-02-21T00:59:19;29.55;;;18.50;;
20022;SDS011;10172;42.054;24.546;2024-02-21T01:01:44;30.40;;;19.20;;
20022;SDS011;10172;42.054;24.546;2024-02-21T01:04:09;29.60;;;19.85;;
20022;SDS011;10172;42.054;24.546;2024-02-21T01:06:35;27.70;;;19.50;;
20022;SDS011;10172;42.054;24.546;2024-02-21T01:09:00;30.92;;;20.02;;
20022;SDS011;10172;42.054;24.546;2024-02-21T01:11:26;25.67;;;17.60;;
20022;SDS011;10172;42.054;24.546;2024-02-21T01:13:52;32.40;;;18.77;;
20022;SDS011;10172;42.054;24.546;2024-02-21T01:16:17;29.10;;;18.45;;
20022;SDS011;10172;42.054;24.546;2024-02-21T01:18:43;29.75;;;20.27;;
20022;SDS011;10172;42.054;24.546;2024-02-21T01:21:08;34.55;;;20.42;;
20022;SDS011;10172;42.054;24.546;2024-02-21T01:23:35;32.13;;;21.30;;
20022;SDS011;10172;42.054;24.546;2024-02-21T01:26:01;29.25;;;19.40;;
20022;SDS011;10172;42.054;24.546;2024-02-21T01:28:27;29.50;;;18.92;;
20022;SDS011;10172;42.054;24.546;2024-02-21T01:30:52;29.45;;;18.77;;
20022;SDS011;10172;42.054;24.546;2024-02-21T01:33:18;31.63;;;18.90;;
20022;SDS011;10172;42.054;24.546;2024-02-21T01:35:44;33.17;;;21.15;;
20022;SDS011;10172;42.054;24.546;2024-02-21T01:38:09;30.23;;;20.02;;
20022;SDS011;10172;42.054;24.546;2024-02-21T01:40:35;30.58;;;20.65;;
20022;SDS011;10172;42.054;24.546;2024-02-21T01:43:02;34.08;;;22.55;;
20022;SDS011;10172;42.054;24.546;2024-02-21T01:45:27;32.85;;;22.67;;
20022;SDS011;10172;42.054;24.546;2024-02-21T01:47:53;33.38;;;21.40;;
20022;SDS011;10172;42.054;24.546;2024-02-21T01:50:18;32.40;;;22.70;;
20022;SDS011;10172;42.054;24.546;2024-02-21T01:52:44;31.13;;;21.77;;
20022;SDS011;10172;42.054;24.546;2024-02-21T01:55:12;33.28;;;21.25;;
20022;SDS011;10172;42.054;24.546;2024-02-21T01:57:39;31.35;;;20.02;;
20022;SDS011;10172;42.054;24.546;2024-02-21T02:00:06;32.67;;;21.17;;
20022;SDS011;10172;42.054;24.546;2024-02-21T02:02:32;31.90;;;20.60;;
20022;SDS011;10172;42.054;24.546;2024-02-21T02:04:58;32.28;;;21.02;;
20022;SDS011;10172;42.054;24.546;2024-02-21T02:07:24;35.22;;;20.70;;
20022;SDS011;10172;42.054;24.546;2024-02-21T02:09:49;33.42;;;20.95;;
20022;SDS011;10172;42.054;24.546;2024-02-21T02:12:15;32.28;;;20.95;;
20022;SDS011;10172;42.054;24.546;2024-02-21T02:14:40;29.27;;;20.70;;
20022;SDS011;10172;42.054;24.546;2024-02-21T02:17:05;31.15;;;19.70;;
20022;SDS011;10172;42.054;24.546;2024-02-21T02:19:31;34.05;;;20.17;;
20022;SDS011;10172;42.054;24.546;2024-02-21T02:22:00;29.10;;;19.80;;
20022;SDS011;10172;42.054;24.546;2024-02-21T02:24:34;29.95;;;20.00;;
20022;SDS011;10172;42.054;24.546;2024-02-21T02:27:00;34.13;;;21.75;;
20022;SDS011;10172;42.054;24.546;2024-02-21T02:29:25;30.25;;;20.38;;
20022;SDS011;10172;42.054;24.546;2024-02-21T02:31:50;29.50;;;19.85;;
20022;SDS011;10172;42.054;24.546;2024-02-21T02:34:16;32.95;;;21.60;;
20022;SDS011;10172;42.054;24.546;2024-02-21T02:36:41;30.10;;;20.20;;
20022;SDS011;10172;42.054;24.546;2024-02-21T02:39:06;28.02;;;19.55;;
20022;SDS011;10172;42.054;24.546;2024-02-21T02:41:34;31.23;;;20.50;;
20022;SDS011;10172;42.054;24.546;2024-02-21T02:44:00;28.55;;;19.88;;
20022;SDS011;10172;42.054;24.546;2024-02-21T02:46:26;32.67;;;20.40;;
20022;SDS011;10172;42.054;24.546;2024-02-21T02:48:51;30.83;;;19.77;;
20022;SDS011;10172;42.054;24.546;2024-02-21T02:51:16;30.17;;;20.05;;
20022;SDS011;10172;42.054;24.546;2024-02-21T02:53:42;30.10;;;19.15;;
20022;SDS011;10172;42.054;24.546;2024-02-21T02:56:07;27.27;;;18.30;;
20022;SDS011;10172;42.054;24.546;2024-02-21T02:58:38;27.23;;;18.38;;
20022;SDS011;10172;42.054;24.546;2024-02-21T03:01:04;26.13;;;18.55;;
20022;SDS011;10172;42.054;24.546;2024-02-21T03:03:31;26.65;;;17.15;;
20022;SDS011;10172;42.054;24.546;2024-02-21T03:05:57;28.55;;;18.27;;
20022;SDS011;10172;42.054;24.546;2024-02-21T03:08:22;27.90;;;17.75;;
20022;SDS011;10172;42.054;24.546;2024-02-21T03:10:47;27.92;;;17.23;;
20022;SDS011;10172;42.054;24.546;2024-02-21T03:13:13;23.80;;;16.17;;
20022;SDS011;10172;42.054;24.546;2024-02-21T03:15:39;28.83;;;18.17;;
20022;SDS011;10172;42.054;24.546;2024-02-21T03:18:04;26.52;;;16.83;;
20022;SDS011;10172;42.054;24.546;2024-02-21T03:20:30;28.98;;;17.63;;
20022;SDS011;10172;42.054;24.546;2024-02-21T03:22:55;28.92;;;18.20;;
20022;SDS011;10172;42.054;24.546;2024-02-21T03:25:20;28.48;;;18.95;;
20022;SDS011;10172;42.054;24.546;2024-02-21T03:27:46;26.23;;;17.58;;
20022;SDS011;10172;42.054;24.546;2024-02-21T03:30:12;23.38;;;15.43;;
20022;SDS011;10172;42.054;24.546;2024-02-21T03:32:38;26.20;;;17.35;;
20022;SDS011;10172;42.054;24.546;2024-02-21T03:35:04;26.20;;;17.52;;
20022;SDS011;10172;42.054;24.546;2024-02-21T03:37:30;27.63;;;17.05;;
20022;SDS011;10172;42.054;24.546;2024-02-21T03:39:55;25.52;;;16.88;;
20022;SDS011;10172;42.054;24.546;2024-02-21T03:42:20;24.00;;;16.27;;
20022;SDS011;10172;42.054;24.546;2024-02-21T03:44:46;25.20;;;16.50;;
20022;SDS011;10172;42.054;24.546;2024-02-21T03:47:11;24.65;;;17.40;;
20022;SDS011;10172;42.054;24.546;2024-02-21T03:49:37;25.67;;;17.30;;
20022;SDS011;10172;42.054;24.546;2024-02-21T03:52:02;29.23;;;20.02;;
20022;SDS011;10172;42.054;24.546;2024-02-21T03:54:28;22.42;;;16.13;;
20022;SDS011;10172;42.054;24.546;2024-02-21T03:56:53;26.35;;;17.25;;
20022;SDS011;10172;42.054;24.546;2024-02-21T03:59:19;23.65;;;16.05;;
20022;SDS011;10172;42.054;24.546;2024-02-21T04:01:44;21.58;;;14.55;;
20022;SDS011;10172;42.054;24.546;2024-02-21T04:04:10;24.42;;;16.65;;
20022;SDS011;10172;42.054;24.546;2024-02-21T04:06:35;22.27;;;14.90;;
20022;SDS011;10172;42.054;24.546;2024-02-21T04:09:01;22.52;;;15.70;;
20022;SDS011;10172;42.054;24.546;2024-02-21T04:11:27;24.33;;;15.88;;
20022;SDS011;10172;42.054;24.546;2024-02-21T04:13:52;24.92;;;17.10;;
20022;SDS011;10172;42.054;24.546;2024-02-21T04:16:18;23.02;;;16.08;;
20022;SDS011;10172;42.054;24.546;2024-02-21T04:18:43;24.30;;;15.48;;
20022;SDS011;10172;42.054;24.546;2024-02-21T04:21:09;23.15;;;15.57;;
20022;SDS011;10172;42.054;24.546;2024-02-21T04:23:35;22.90;;;16.17;;
20022;SDS011;10172;42.054;24.546;2024-02-21T04:26:01;22.83;;;16.73;;
20022;SDS011;10172;42.054;24.546;2024-02-21T04:28:26;22.90;;;16.45;;
20022;SDS011;10172;42.054;24.546;2024-02-21T04:30:51;22.25;;;14.65;;
20022;SDS011;10172;42.054;24.546;2024-02-21T04:33:17;23.75;;;15.90;;
20022;SDS011;10172;42.054;24.546;2024-02-21T04:35:43;23.00;;;16.05;;
20022;SDS011;10172;42.054;24.546;2024-02-21T04:38:08;22.77;;;15.57;;
20022;SDS011;10172;42.054;24.546;2024-02-21T04:40:33;23.63;;;16.73;;
20022;SDS011;10172;42.054;24.546;2024-02-21T04:42:59;20.52;;;13.25;;
20022;SDS011;10172;42.054;24.546;2024-02-21T04:45:24;21.10;;;15.27;;
20022;SDS011;10172;42.054;24.546;2024-02-21T04:47:50;22.52;;;14.70;;
20022;SDS011;10172;42.054;24.546;2024-02-21T04:50:15;20.98;;;15.50;;
20022;SDS011;10172;42.054;24.546;2024-02-21T04:52:40;20.60;;;14.13;;
20022;SDS011;10172;42.054;24.546;2024-02-21T04:55:06;18.83;;;13.18;;
20022;SDS011;10172;42.054;24.546;2024-02-21T04:57:32;22.30;;;15.13;;
20022;SDS011;10172;42.054;24.546;2024-02-21T04:59:57;19.40;;;12.45;;
20022;SDS011;10172;42.054;24.546;2024-02-21T05:02:23;19.48;;;14.18;;
20022;SDS011;10172;42.054;24.546;2024-02-21T05:04:49;21.45;;;14.63;;
20022;SDS011;10172;42.054;24.546;2024-02-21T05:07:15;22.15;;;15.35;;
20022;SDS011;10172;42.054;24.546;2024-02-21T05:09:42;23.17;;;15.95;;
20022;SDS011;10172;42.054;24.546;2024-02-21T05:12:07;22.58;;;15.35;;
20022;SDS011;10172;42.054;24.546;2024-02-21T05:14:33;21.90;;;15.75;;
20022;SDS011;10172;42.054;24.546;2024-02-21T05:16:58;23.75;;;17.05;;
20022;SDS011;10172;42.054;24.546;2024-02-21T05:19:24;24.77;;;16.65;;
20022;SDS011;10172;42.054;24.546;2024-02-21T05:21:49;27.55;;;18.65;;
20022;SDS011;10172;42.054;24.546;2024-02-21T05:24:14;27.77;;;18.30;;
20022;SDS011;10172;42.054;24.546;2024-02-21T05:26:40;23.52;;;15.82;;
20022;SDS011;10172;42.054;24.546;2024-02-21T05:29:05;20.33;;;14.35;;
20022;SDS011;10172;42.054;24.546;2024-02-21T05:32:16;19.38;;;13.07;;
20022;SDS011;10172;42.054;24.546;2024-02-21T05:34:17;17.98;;;12.07;;
20022;SDS011;10172;42.054;24.546;2024-02-21T05:36:43;16.27;;;11.93;;
20022;SDS011;10172;42.054;24.546;2024-02-21T05:39:09;17.00;;;12.30;;
20022;SDS011;10172;42.054;24.546;2024-02-21T05:41:34;16.85;;;12.48;;
20022;SDS011;10172;42.054;24.546;2024-02-21T05:44:00;16.80;;;12.02;;
20022;SDS011;10172;42.054;24.546;2024-02-21T05:46:25;15.82;;;11.88;;
20022;SDS011;10172;42.054;24.546;2024-02-21T05:48:50;17.50;;;12.68;;
20022;SDS011;10172;42.054;24.546;2024-02-21T05:51:16;16.48;;;10.98;;
20022;SDS011;10172;42.054;24.546;2024-02-21T05:53:41;19.00;;;12.10;;
20022;SDS011;10172;42.054;24.546;2024-02-21T05:56:10;16.17;;;11.02;;
20022;SDS011;10172;42.054;24.546;2024-02-21T05:58:36;14.80;;;10.93;;
20022;SDS011;10172;42.054;24.546;2024-02-21T06:01:02;16.05;;;11.27;;
20022;SDS011;10172;42.054;24.546;2024-02-21T06:03:28;20.55;;;11.73;;
20022;SDS011;10172;42.054;24.546;2024-02-21T06:05:54;17.20;;;11.73;;
20022;SDS011;10172;42.054;24.546;2024-02-21T06:08:19;19.02;;;14.15;;
20022;SDS011;10172;42.054;24.546;2024-02-21T06:10:45;18.20;;;12.50;;
20022;SDS011;10172;42.054;24.546;2024-02-21T06:13:10;17.27;;;11.25;;
20022;SDS011;10172;42.054;24.546;2024-02-21T06:15:36;15.15;;;10.93;;
20022;SDS011;10172;42.054;24.546;2024-02-21T06:18:01;20.33;;;12.60;;
20022;SDS011;10172;42.054;24.546;2024-02-21T06:20:27;18.48;;;12.65;;
20022;SDS011;10172;42.054;24.546;2024-02-21T06:22:53;20.77;;;15.55;;
20022;SDS011;10172;42.054;24.546;2024-02-21T06:25:18;18.60;;;14.05;;
20022;SDS011;10172;42.054;24.546;2024-02-21T06:27:43;21.20;;;16.65;;
20022;SDS011;10172;42.054;24.546;2024-02-21T06:30:09;16.10;;;11.82;;
20022;SDS011;10172;42.054;24.546;2024-02-21T06:32:35;14.52;;;9.77;;
20022;SDS011;10172;42.054;24.546;2024-02-21T06:35:00;14.70;;;11.77;;
20022;SDS011;10172;42.054;24.546;2024-02-21T06:37:27;18.30;;;14.18;;
20022;SDS011;10172;42.054;24.546;2024-02-21T06:39:52;13.45;;;10.73;;
20022;SDS011;10172;42.054;24.546;2024-02-21T06:42:17;12.93;;;9.63;;
20022;SDS011;10172;42.054;24.546;2024-02-21T06:44:44;15.55;;;11.30;;
20022;SDS011;10172;42.054;24.546;2024-02-21T06:47:09;15.55;;;11.65;;
20022;SDS011;10172;42.054;24.546;2024-02-21T06:49:34;13.23;;;10.15;;
20022;SDS011;10172;42.054;24.546;2024-02-21T06:52:02;13.40;;;9.68;;
20022;SDS011;10172;42.054;24.546;2024-02-21T06:54:28;13.60;;;9.20;;
20022;SDS011;10172;42.054;24.546;2024-02-21T06:56:54;13.55;;;9.18;;
20022;SDS011;10172;42.054;24.546;2024-02-21T06:59:19;16.15;;;11.13;;
20022;SDS011;10172;42.054;24.546;2024-02-21T07:01:45;13.73;;;9.05;;
20022;SDS011;10172;42.054;24.546;2024-02-21T07:04:13;12.95;;;8.48;;
20022;SDS011;10172;42.054;24.546;2024-02-21T07:06:38;11.48;;;8.18;;
20022;SDS011;10172;42.054;24.546;2024-02-21T07:09:04;11.38;;;9.10;;
20022;SDS011;10172;42.054;24.546;2024-02-21T07:11:30;11.85;;;8.40;;
20022;SDS011;10172;42.054;24.546;2024-02-21T07:13:55;16.38;;;10.13;;
20022;SDS011;10172;42.054;24.546;2024-02-21T07:16:21;53.97;;;21.85;;
20022;SDS011;10172;42.054;24.546;2024-02-21T07:18:46;45.08;;;19.88;;
20022;SDS011;10172;42.054;24.546;2024-02-21T07:21:11;15.88;;;10.80;;
20022;SDS011;10172;42.054;24.546;2024-02-21T07:23:40;12.77;;;9.13;;
20022;SDS011;10172;42.054;24.546;2024-02-21T07:26:08;31.98;;;20.92;;
20022;SDS011;10172;42.054;24.546;2024-02-21T07:28:34;26.80;;;19.52;;
20022;SDS011;10172;42.054;24.546;2024-02-21T07:30:59;21.77;;;15.18;;
20022;SDS011;10172;42.054;24.546;2024-02-21T07:33:25;21.15;;;14.00;;
20022;SDS011;10172;42.054;24.546;2024-02-21T07:35:50;23.08;;;14.35;;
20022;SDS011;10172;42.054;24.546;2024-02-21T07:38:16;19.00;;;12.88;;
20022;SDS011;10172;42.054;24.546;2024-02-21T07:40:44;19.58;;;13.73;;
20022;SDS011;10172;42.054;24.546;2024-02-21T07:43:10;17.77;;;12.10;;
20022;SDS011;10172;42.054;24.546;2024-02-21T07:45:35;12.52;;;8.45;;
20022;SDS011;10172;42.054;24.546;2024-02-21T07:48:01;18.92;;;13.15;;
20022;SDS011;10172;42.054;24.546;2024-02-21T07:50:27;14.07;;;9.35;;
20022;SDS011;10172;42.054;24.546;2024-02-21T07:52:52;10.13;;;6.53;;
20022;SDS011;10172;42.054;24.546;2024-02-21T07:55:18;12.90;;;8.75;;
20022;SDS011;10172;42.054;24.546;2024-02-21T07:57:43;10.90;;;7.95;;
20022;SDS011;10172;42.054;24.546;2024-02-21T08:00:09;9.80;;;7.18;;
20022;SDS011;10172;42.054;24.546;2024-02-21T08:02:38;10.32;;;7.10;;
20022;SDS011;10172;42.054;24.546;2024-02-21T08:05:04;10.45;;;6.75;;
20022;SDS011;10172;42.054;24.546;2024-02-21T08:07:29;8.38;;;6.25;;
20022;SDS011;10172;42.054;24.546;2024-02-21T08:09:56;9.50;;;6.80;;
20022;SDS011;10172;42.054;24.546;2024-02-21T08:12:21;10.07;;;7.18;;
20022;SDS011;10172;42.054;24.546;2024-02-21T08:14:47;8.43;;;5.50;;
20022;SDS011;10172;42.054;24.546;2024-02-21T08:17:12;8.32;;;5.68;;
20022;SDS011;10172;42.054;24.546;2024-02-21T08:19:37;12.20;;;7.00;;
20022;SDS011;10172;42.054;24.546;2024-02-21T08:22:03;13.40;;;6.68;;
20022;SDS011;10172;42.054;24.546;2024-02-21T08:24:28;10.23;;;6.63;;
20022;SDS011;10172;42.054;24.546;2024-02-21T08:26:54;9.55;;;6.72;;
20022;SDS011;10172;42.054;24.546;2024-02-21T08:29:19;11.70;;;8.27;;
20022;SDS011;10172;42.054;24.546;2024-02-21T08:31:44;7.20;;;3.85;;
20022;SDS011;10172;42.054;24.546;2024-02-21T08:34:10;10.18;;;5.60;;
20022;SDS011;10172;42.054;24.546;2024-02-21T08:36:35;13.80;;;8.05;;
20022;SDS011;10172;42.054;24.546;2024-02-21T08:39:02;10.90;;;7.68;;
20022;SDS011;10172;42.054;24.546;2024-02-21T08:41:32;12.68;;;7.82;;
20022;SDS011;10172;42.054;24.546;2024-02-21T08:43:59;11.57;;;8.43;;
20022;SDS011;10172;42.054;24.546;2024-02-21T08:46:25;7.88;;;5.15;;
20022;SDS011;10172;42.054;24.546;2024-02-21T08:48:51;5.97;;;4.40;;
20022;SDS011;10172;42.054;24.546;2024-02-21T08:51:17;9.57;;;6.32;;
20022;SDS011;10172;42.054;24.546;2024-02-21T08:53:46;6.70;;;3.78;;
20022;SDS011;10172;42.054;24.546;2024-02-21T08:56:12;15.73;;;9.10;;
20022;SDS011;10172;42.054;24.546;2024-02-21T08:58:38;10.25;;;6.97;;
20022;SDS011;10172;42.054;24.546;2024-02-21T09:01:04;7.15;;;4.57;;
20022;SDS011;10172;42.054;24.546;2024-02-21T09:03:34;11.88;;;8.30;;
20022;SDS011;10172;42.054;24.546;2024-02-21T09:06:00;8.60;;;5.15;;
20022;SDS011;10172;42.054;24.546;2024-02-21T09:08:26;12.50;;;6.07;;
20022;SDS011;10172;42.054;24.546;2024-02-21T09:10:52;12.35;;;8.10;;
20022;SDS011;10172;42.054;24.546;2024-02-21T09:13:18;11.98;;;8.45;;
20022;SDS011;10172;42.054;24.546;2024-02-21T09:15:44;9.75;;;5.97;;
20022;SDS011;10172;42.054;24.546;2024-02-21T09:18:09;10.30;;;6.90;;
20022;SDS011;10172;42.054;24.546;2024-02-21T09:20:34;20.13;;;11.13;;
20022;SDS011;10172;42.054;24.546;2024-02-21T09:23:00;13.90;;;9.20;;
20022;SDS011;10172;42.054;24.546;2024-02-21T09:25:25;10.30;;;7.53;;
20022;SDS011;10172;42.054;24.546;2024-02-21T09:27:50;10.68;;;6.45;;
20022;SDS011;10172;42.054;24.546;2024-02-21T09:30:17;13.63;;;9.27;;
20022;SDS011;10172;42.054;24.546;2024-02-21T09:32:42;8.27;;;5.93;;
20022;SDS011;10172;42.054;24.546;2024-02-21T09:35:08;14.00;;;8.73;;
20022;SDS011;10172;42.054;24.546;2024-02-21T09:37:33;20.90;;;11.15;;
20022;SDS011;10172;42.054;24.546;2024-02-21T09:39:59;8.70;;;6.32;;
20022;SDS011;10172;42.054;24.546;2024-02-21T09:42:32;9.13;;;6.80;;
20022;SDS011;10172;42.054;24.546;2024-02-21T09:45:04;7.57;;;5.10;;
20022;SDS011;10172;42.054;24.546;2024-02-21T09:47:34;6.55;;;5.00;;
20022;SDS011;10172;42.054;24.546;2024-02-21T09:50:08;4.18;;;2.72;;
20022;SDS011;10172;42.054;24.546;2024-02-21T09:52:35;7.60;;;5.45;;
20022;SDS011;10172;42.054;24.546;2024-02-21T09:55:01;7.03;;;5.35;;
20022;SDS011;10172;42.054;24.546;2024-02-21T09:57:30;8.18;;;5.40;;
20022;SDS011;10172;42.054;24.546;2024-02-21T09:59:56;7.65;;;4.65;;
20022;SDS011;10172;42.054;24.546;2024-02-21T10:02:24;6.65;;;5.47;;
20022;SDS011;10172;42.054;24.546;2024-02-21T10:04:49;8.85;;;5.78;;
20022;SDS011;10172;42.054;24.546;2024-02-21T10:07:14;6.80;;;5.10;;
20022;SDS011;10172;42.054;24.546;2024-02-21T10:09:40;9.05;;;6.07;;
20022;SDS011;10172;42.054;24.546;2024-02-21T10:12:10;8.80;;;5.53;;
20022;SDS011;10172;42.054;24.546;2024-02-21T10:14:36;10.90;;;7.22;;
20022;SDS011;10172;42.054;24.546;2024-02-21T10:17:02;6.63;;;5.03;;
20022;SDS011;10172;42.054;24.546;2024-02-21T10:19:30;7.57;;;5.00;;
20022;SDS011;10172;42.054;24.546;2024-02-21T10:22:02;7.50;;;5.18;;
20022;SDS011;10172;42.054;24.546;2024-02-21T10:24:32;8.93;;;6.68;;
20022;SDS011;10172;42.054;24.546;2024-02-21T10:26:59;8.95;;;6.68;;
20022;SDS011;10172;42.054;24.546;2024-02-21T10:29:29;8.38;;;5.82;;
20022;SDS011;10172;42.054;24.546;2024-02-21T10:32:05;6.68;;;4.85;;
20022;SDS011;10172;42.054;24.546;2024-02-21T10:34:32;8.75;;;5.28;;
20022;SDS011;10172;42.054;24.546;2024-02-21T10:37:04;6.20;;;2.85;;
20022;SDS011;10172;42.054;24.546;2024-02-21T10:39:31;8.20;;;5.35;;
20022;SDS011;10172;42.054;24.546;2024-02-21T10:41:59;8.55;;;5.00;;
20022;SDS011;10172;42.054;24.546;2024-02-21T10:44:29;7.35;;;4.72;;
20022;SDS011;10172;42.054;24.546;2024-02-21T10:46:56;7.20;;;5.68;;
20022;SDS011;10172;42.054;24.546;2024-02-21T10:49:25;5.53;;;3.50;;
20022;SDS011;10172;42.054;24.546;2024-02-21T10:51:55;7.22;;;4.32;;
20022;SDS011;10172;42.054;24.546;2024-02-21T10:57:24;8.50;;;4.43;;
20022;SDS011;10172;42.054;24.546;2024-02-21T10:59:52;5.50;;;3.80;;
20022;SDS011;10172;42.054;24.546;2024-02-21T11:02:19;7.00;;;5.28;;
20022;SDS011;10172;42.054;24.546;2024-02-21T11:04:45;4.88;;;3.10;;
20022;SDS011;10172;42.054;24.546;2024-02-21T11:07:12;6.68;;;4.30;;
20022;SDS011;10172;42.054;24.546;2024-02-21T11:09:40;6.20;;;4.55;;
20022;SDS011;10172;42.054;24.546;2024-02-21T11:12:19;7.40;;;5.50;;
20022;SDS011;10172;42.054;24.546;2024-02-21T11:14:45;7.80;;;4.25;;
20022;SDS011;10172;42.054;24.546;2024-02-21T11:17:15;5.38;;;4.55;;
20022;SDS011;10172;42.054;24.546;2024-02-21T11:19:46;4.18;;;2.28;;
20022;SDS011;10172;42.054;24.546;2024-02-21T11:22:15;6.97;;;4.68;;
20022;SDS011;10172;42.054;24.546;2024-02-21T11:24:42;6.80;;;3.03;;
20022;SDS011;10172;42.054;24.546;2024-02-21T11:27:15;6.28;;;2.80;;
20022;SDS011;10172;42.054;24.546;2024-02-21T11:32:11;5.85;;;3.03;;
20022;SDS011;10172;42.054;24.546;2024-02-21T11:34:41;6.00;;;3.70;;
20022;SDS011;10172;42.054;24.546;2024-02-21T11:37:17;5.93;;;3.92;;
20022;SDS011;10172;42.054;24.546;2024-02-21T11:39:42;10.77;;;6.05;;
20022;SDS011;10172;42.054;24.546;2024-02-21T11:42:09;5.10;;;3.50;;
20022;SDS011;10172;42.054;24.546;2024-02-21T11:44:35;6.65;;;4.07;;
20022;SDS011;10172;42.054;24.546;2024-02-21T11:47:05;5.65;;;4.10;;
20022;SDS011;10172;42.054;24.546;2024-02-21T11:49:35;8.05;;;4.53;;
20022;SDS011;10172;42.054;24.546;2024-02-21T11:52:03;6.03;;;3.70;;
20022;SDS011;10172;42.054;24.546;2024-02-21T11:54:32;7.10;;;4.20;;
20022;SDS011;10172;42.054;24.546;2024-02-21T11:56:58;8.32;;;4.45;;
20022;SDS011;10172;42.054;24.546;2024-02-21T11:59:24;6.72;;;4.85;;
20022;SDS011;10172;42.054;24.546;2024-02-21T12:01:49;5.30;;;3.65;;
20022;SDS011;10172;42.054;24.546;2024-02-21T12:04:16;3.95;;;2.78;;
20022;SDS011;10172;42.054;24.546;2024-02-21T12:06:44;6.07;;;3.60;;
20022;SDS011;10172;42.054;24.546;2024-02-21T12:09:13;4.35;;;3.10;;
20022;SDS011;10172;42.054;24.546;2024-02-21T12:11:39;6.63;;;4.30;;
20022;SDS011;10172;42.054;24.546;2024-02-21T12:14:04;5.97;;;4.03;;
20022;SDS011;10172;42.054;24.546;2024-02-21T12:16:33;5.05;;;3.10;;
20022;SDS011;10172;42.054;24.546;2024-02-21T12:18:59;3.90;;;2.95;;
20022;SDS011;10172;42.054;24.546;2024-02-21T12:21:25;5.32;;;3.65;;
20022;SDS011;10172;42.054;24.546;2024-02-21T12:24:17;4.15;;;2.97;;
20022;SDS011;10172;42.054;24.546;2024-02-21T12:26:47;4.95;;;3.10;;
20022;SDS011;10172;42.054;24.546;2024-02-21T12:29:12;5.95;;;3.50;;
20022;SDS011;10172;42.054;24.546;2024-02-21T12:31:38;6.18;;;4.03;;
20022;SDS011;10172;42.054;24.546;2024-02-21T12:34:04;4.50;;;3.20;;
20022;SDS011;10172;42.054;24.546;2024-02-21T12:36:33;4.88;;;3.42;;
20022;SDS011;10172;42.054;24.546;2024-02-21T12:38:58;4.88;;;3.05;;
20022;SDS011;10172;42.054;24.546;2024-02-21T12:41:25;5.38;;;3.20;;
20022;SDS011;10172;42.054;24.546;2024-02-21T12:43:52;3.47;;;2.33;;
20022;SDS011;10172;42.054;24.546;2024-02-21T12:46:18;5.03;;;2.95;;
20022;SDS011;10172;42.054;24.546;2024-02-21T12:48:43;4.95;;;2.58;;
20022;SDS011;10172;42.054;24.546;2024-02-21T12:51:09;5.07;;;3.10;;
20022;SDS011;10172;42.054;24.546;2024-02-21T12:53:34;3.60;;;2.08;;
20022;SDS011;10172;42.054;24.546;2024-02-21T12:56:00;4.57;;;2.80;;
20022;SDS011;10172;42.054;24.546;2024-02-21T12:58:25;4.43;;;2.88;;
20022;SDS011;10172;42.054;24.546;2024-02-21T13:00:51;4.10;;;2.55;;
20022;SDS011;10172;42.054;24.546;2024-02-21T13:03:16;4.97;;;3.13;;
20022;SDS011;10172;42.054;24.546;2024-02-21T13:05:41;3.55;;;2.70;;
20022;SDS011;10172;42.054;24.546;2024-02-21T13:08:08;3.72;;;2.85;;
20022;SDS011;10172;42.054;24.546;2024-02-21T13:10:34;4.25;;;2.85;;
20022;SDS011;10172;42.054;24.546;2024-02-21T13:13:00;4.68;;;2.55;;
20022;SDS011;10172;42.054;24.546;2024-02-21T13:15:26;3.88;;;2.63;;
20022;SDS011;10172;42.054;24.546;2024-02-21T13:17:53;3.63;;;2.70;;
20022;SDS011;10172;42.054;24.546;2024-02-21T13:20:18;3.63;;;2.70;;
20022;SDS011;10172;42.054;24.546;2024-02-21T13:22:43;4.45;;;2.70;;
20022;SDS011;10172;42.054;24.546;2024-02-21T13:25:09;4.28;;;2.63;;
20022;SDS011;10172;42.054;24.546;2024-02-21T13:27:35;6.20;;;3.60;;
20022;SDS011;10172;42.054;24.546;2024-02-21T13:30:00;4.97;;;3.35;;
20022;SDS011;10172;42.054;24.546;2024-02-21T13:32:30;4.57;;;2.47;;
20022;SDS011;10172;42.054;24.546;2024-02-21T13:34:56;3.72;;;2.47;;
20022;SDS011;10172;42.054;24.546;2024-02-21T13:37:24;3.03;;;2.20;;
20022;SDS011;10172;42.054;24.546;2024-02-21T13:39:51;4.88;;;2.17;;
20022;SDS011;10172;42.054;24.546;2024-02-21T13:42:17;4.80;;;2.65;;
20022;SDS011;10172;42.054;24.546;2024-02-21T13:44:44;6.32;;;2.65;;
20022;SDS011;10172;42.054;24.546;2024-02-21T13:47:09;3.90;;;2.42;;
20022;SDS011;10172;42.054;24.546;2024-02-21T13:49:36;3.70;;;1.67;;
20022;SDS011;10172;42.054;24.546;2024-02-21T13:52:01;4.50;;;2.08;;
20022;SDS011;10172;42.054;24.546;2024-02-21T13:54:27;4.65;;;2.88;;
20022;SDS011;10172;42.054;24.546;2024-02-21T13:56:52;5.13;;;3.35;;
20022;SDS011;10172;42.054;24.546;2024-02-21T13:59:18;4.40;;;2.83;;
20022;SDS011;10172;42.054;24.546;2024-02-21T14:01:43;3.53;;;2.70;;
20022;SDS011;10172;42.054;24.546;2024-02-21T14:04:09;3.72;;;2.38;;
20022;SDS011;10172;42.054;24.546;2024-02-21T14:06:34;4.80;;;2.78;;
20022;SDS011;10172;42.054;24.546;2024-02-21T14:09:00;3.83;;;2.42;;
20022;SDS011;10172;42.054;24.546;2024-02-21T14:11:25;4.40;;;2.72;;
20022;SDS011;10172;42.054;24.546;2024-02-21T14:13:52;3.85;;;2.70;;
20022;SDS011;10172;42.054;24.546;2024-02-21T14:16:17;4.70;;;2.53;;
20022;SDS011;10172;42.054;24.546;2024-02-21T14:18:43;4.78;;;3.03;;